Darstellungsparameter: Aktuell verwendete Einstellungen:
Skalierung der Graphiken ... ?
xyx+y,   Skalierungsfaktor:      Skalierung: Modus: x, Faktor: 1
Darstellungszeitraum ... ?
Vom - - bis: - -   Zeitraum: 11.03.2019 - 11.03.2019
Min/Max/Avg-Anzeige ... ?
Zeige MMA aktuell
Zeige MMA Monat
Zeige MMA alles
Zeige --A aktuell
Zeige --A Monat
Zeige --A alles
Keine MMA-Anzeige
MMA:
Keine MMA-Graphiken
MMA-Basis: 11.03.2019 - 11.03.2019
Quicknavigation für Darstellung... ?
Tage:      1T, 2T, 3T, 5T -1T -2T -3T -5T +1T +2T +3T +5T
Wochen: 1W, 2W, 3W -1W -2W -3W +1W +2W +3W
Monate: 1M, 3M, 6M -1M -3M -6M +1M +3M +6M
Jahre:    1J, 3J, 5J, 10J -1J -3J -5J -10J +1J +3J +5J +10J
Nutze für die Darstellung ... ?
Originaldaten oder Mittelwerte auf ...
Stundenbasis Tagesbasis Wochenbasis
Monatsbasis Jahresbasis      Datenbasis: Original-Daten
Darstellen als:
Statistik (Auto) Statistik J:M      Darstellung:
Zur Graphik,    zurück zur Übersicht aller Sensoren.
 
Tabellarische Datenbersicht: ?
 
Sensor: Nr:Datum:Temp:Feuchte:Taupunkt:
Aussen-T/F 1 11-03-2019 00:00:00 4.7 C 80 % 1.55 C
2 11-03-2019 00:05:00 4.6 C 80 % 1.46 C
3 11-03-2019 00:10:00 4.5 C 80 % 1.36 C
4 11-03-2019 00:15:00 4.4 C 81 % 1.43 C
5 11-03-2019 00:20:00 4.3 C 81 % 1.34 C
6 11-03-2019 00:25:00 4.2 C 81 % 1.24 C
7 11-03-2019 00:30:00 4.2 C 81 % 1.24 C
8 11-03-2019 00:35:00 4.2 C 82 % 1.41 C
9 11-03-2019 00:40:00 4.2 C 82 % 1.41 C
10 11-03-2019 00:45:00 4.2 C 82 % 1.41 C
11 11-03-2019 00:50:00 4.3 C 82 % 1.51 C
12 11-03-2019 00:55:00 4.3 C 81 % 1.34 C
13 11-03-2019 01:00:00 4.3 C 81 % 1.34 C
14 11-03-2019 01:05:00 4.4 C 81 % 1.43 C
15 11-03-2019 01:10:00 4.4 C 80 % 1.26 C
16 11-03-2019 01:15:00 4.5 C 80 % 1.36 C
17 11-03-2019 01:20:00 4.5 C 80 % 1.36 C
18 11-03-2019 01:25:00 4.4 C 80 % 1.26 C
19 11-03-2019 01:30:00 4.3 C 80 % 1.16 C
20 11-03-2019 01:35:00 4.4 C 80 % 1.26 C
21 11-03-2019 01:40:00 4.5 C 79 % 1.18 C
22 11-03-2019 01:45:00 4.7 C 79 % 1.38 C
23 11-03-2019 01:50:00 4.8 C 78 % 1.3 C
24 11-03-2019 01:55:00 4.9 C 78 % 1.39 C
25 11-03-2019 02:00:00 5 C 78 % 1.49 C
Sensor: Nr:Datum:Temp:Feuchte:Taupunkt:
Aussen-T/F 26 11-03-2019 02:05:00 5.2 C 77 % 1.51 C
27 11-03-2019 02:10:00 5.4 C 77 % 1.7 C
28 11-03-2019 02:15:00 5.4 C 77 % 1.7 C
29 11-03-2019 02:20:00 5.3 C 78 % 1.78 C
30 11-03-2019 02:25:00 5.2 C 79 % 1.86 C
31 11-03-2019 02:30:00 5.1 C 80 % 1.94 C
32 11-03-2019 02:35:00 5 C 80 % 1.84 C
33 11-03-2019 02:40:00 4.9 C 80 % 1.75 C
34 11-03-2019 02:45:00 4.9 C 80 % 1.75 C
35 11-03-2019 02:50:00 4.9 C 80 % 1.75 C
36 11-03-2019 02:55:00 5 C 81 % 2.02 C
37 11-03-2019 03:00:00 5 C 81 % 2.02 C
38 11-03-2019 03:05:00 5 C 81 % 2.02 C
39 11-03-2019 03:10:00 5 C 82 % 2.19 C
40 11-03-2019 03:15:00 4.9 C 81 % 1.92 C
41 11-03-2019 03:20:00 4.3 C 83 % 1.67 C
42 11-03-2019 03:25:00 3.7 C 85 % 1.42 C
43 11-03-2019 03:30:00 3.3 C 86 % 1.19 C
44 11-03-2019 03:35:00 2.9 C 87 % 0.96 C
45 11-03-2019 03:40:00 2.6 C 88 % 0.82 C
46 11-03-2019 03:45:00 2.5 C 89 % 0.88 C
47 11-03-2019 03:50:00 2.4 C 90 % 0.93 C
48 11-03-2019 03:55:00 2.3 C 91 % 0.99 C
49 11-03-2019 04:00:00 2.3 C 91 % 0.99 C
50 11-03-2019 04:05:00 2.3 C 92 % 1.14 C
Sensor: Nr:Datum:Temp:Feuchte:Taupunkt:
Aussen-T/F 51 11-03-2019 04:10:00 2.3 C 92 % 1.14 C
52 11-03-2019 04:15:00 2.3 C 92 % 1.14 C
53 11-03-2019 04:20:00 2.3 C 93 % 1.29 C
54 11-03-2019 04:25:00 2.3 C 93 % 1.29 C
55 11-03-2019 04:30:00 2.4 C 93 % 1.39 C
56 11-03-2019 04:35:00 2.5 C 93 % 1.49 C
57 11-03-2019 04:40:00 2.5 C 93 % 1.49 C
58 11-03-2019 04:45:00 2.4 C 93 % 1.39 C
59 11-03-2019 04:50:00 2.4 C 93 % 1.39 C
60 11-03-2019 04:55:00 2.4 C 93 % 1.39 C
61 11-03-2019 05:00:00 2.4 C 94 % 1.54 C
62 11-03-2019 05:05:00 2.5 C 94 % 1.63 C
63 11-03-2019 05:10:00 2.4 C 93 % 1.39 C
64 11-03-2019 05:15:00 2.3 C 93 % 1.29 C
65 11-03-2019 05:20:00 2.2 C 93 % 1.19 C
66 11-03-2019 05:25:00 2.2 C 93 % 1.19 C
67 11-03-2019 05:30:00 2.2 C 93 % 1.19 C
68 11-03-2019 05:35:00 2.1 C 92 % 0.94 C
69 11-03-2019 05:40:00 2 C 92 % 0.84 C
70 11-03-2019 05:45:00 2 C 92 % 0.84 C
71 11-03-2019 05:50:00 2.1 C 92 % 0.94 C
72 11-03-2019 05:55:00 2.1 C 92 % 0.94 C
73 11-03-2019 06:00:00 2.2 C 92 % 1.04 C
74 11-03-2019 06:05:00 2.1 C 92 % 0.94 C
75 11-03-2019 06:10:00 1.9 C 92 % 0.74 C
Sensor: Nr:Datum:Temp:Feuchte:Taupunkt:
Aussen-T/F 76 11-03-2019 06:15:00 1.8 C 92 % 0.64 C
77 11-03-2019 06:20:00 1.8 C 92 % 0.64 C
78 11-03-2019 06:25:00 1.7 C 92 % 0.54 C
79 11-03-2019 06:30:00 1.7 C 93 % 0.69 C
80 11-03-2019 06:35:00 1.6 C 93 % 0.59 C
81 11-03-2019 06:40:00 1.6 C 93 % 0.59 C
82 11-03-2019 06:45:00 1.6 C 93 % 0.59 C
83 11-03-2019 06:50:00 1.5 C 93 % 0.49 C
84 11-03-2019 06:55:00 1.4 C 93 % 0.4 C
85 11-03-2019 07:00:00 1.4 C 93 % 0.4 C
86 11-03-2019 07:05:00 1.4 C 93 % 0.4 C
87 11-03-2019 07:10:00 1.4 C 94 % 0.54 C
88 11-03-2019 07:15:00 1.3 C 94 % 0.44 C
89 11-03-2019 07:20:00 1.3 C 94 % 0.44 C
90 11-03-2019 07:25:00 1.4 C 94 % 0.54 C
91 11-03-2019 07:30:00 1.4 C 94 % 0.54 C
92 11-03-2019 07:35:00 1.5 C 94 % 0.64 C
93 11-03-2019 07:40:00 1.7 C 95 % 0.99 C
94 11-03-2019 07:45:00 1.8 C 95 % 1.09 C
95 11-03-2019 07:50:00 1.8 C 95 % 1.09 C
96 11-03-2019 07:55:00 1.9 C 95 % 1.19 C
97 11-03-2019 08:00:00 1.9 C 95 % 1.19 C
98 11-03-2019 08:05:00 2 C 95 % 1.29 C
99 11-03-2019 08:10:00 2 C 95 % 1.29 C
100 11-03-2019 08:15:00 2 C 95 % 1.29 C
Sensor: Nr:Datum:Temp:Feuchte:Taupunkt:
Aussen-T/F 101 11-03-2019 08:20:00 2.1 C 95 % 1.38 C
102 11-03-2019 08:25:00 2.2 C 95 % 1.48 C
103 11-03-2019 08:30:00 2.3 C 95 % 1.58 C
104 11-03-2019 08:35:00 2.4 C 95 % 1.68 C
105 11-03-2019 08:40:00 2.5 C 95 % 1.78 C
106 11-03-2019 08:45:00 2.7 C 95 % 1.98 C
107 11-03-2019 08:50:00 2.8 C 95 % 2.08 C
108 11-03-2019 08:55:00 2.9 C 95 % 2.18 C
109 11-03-2019 09:00:00 3 C 94 % 2.13 C
110 11-03-2019 09:05:00 3 C 93 % 1.98 C
111 11-03-2019 09:10:00 3.2 C 91 % 1.88 C
112 11-03-2019 09:15:00 3.3 C 89 % 1.67 C
113 11-03-2019 09:20:00 3.4 C 89 % 1.76 C
114 11-03-2019 09:25:00 3.6 C 87 % 1.64 C
115 11-03-2019 09:30:00 3.7 C 86 % 1.58 C
116 11-03-2019 09:35:00 3.6 C 87 % 1.64 C
117 11-03-2019 09:40:00 3.4 C 88 % 1.61 C
118 11-03-2019 09:45:00 3.3 C 89 % 1.67 C
119 11-03-2019 09:50:00 3.3 C 90 % 1.82 C
120 11-03-2019 09:55:00 3.3 C 90 % 1.82 C
121 11-03-2019 10:00:00 3.4 C 91 % 2.07 C
122 11-03-2019 10:05:00 3.5 C 91 % 2.17 C
123 11-03-2019 10:10:00 3.6 C 91 % 2.27 C
124 11-03-2019 10:15:00 3.8 C 91 % 2.47 C
125 11-03-2019 10:20:00 3.9 C 91 % 2.57 C
Sensor: Nr:Datum:Temp:Feuchte:Taupunkt:
Aussen-T/F 126 11-03-2019 10:25:00 4.1 C 89 % 2.45 C
127 11-03-2019 10:30:00 4.1 C 88 % 2.3 C
128 11-03-2019 10:35:00 4.1 C 87 % 2.14 C
129 11-03-2019 10:40:00 4.2 C 86 % 2.07 C
130 11-03-2019 10:45:00 4.1 C 85 % 1.81 C
131 11-03-2019 10:50:00 4.1 C 85 % 1.81 C
132 11-03-2019 10:55:00 4.2 C 85 % 1.91 C
133 11-03-2019 11:00:00 4.3 C 86 % 2.17 C
134 11-03-2019 11:05:00 4.4 C 86 % 2.27 C
135 11-03-2019 11:10:00 4.6 C 85 % 2.3 C
136 11-03-2019 11:15:00 4.6 C 84 % 2.14 C
137 11-03-2019 11:20:00 4.6 C 83 % 1.97 C
138 11-03-2019 11:25:00 4.7 C 84 % 2.23 C
139 11-03-2019 11:30:00 4.9 C 83 % 2.26 C
140 11-03-2019 11:35:00 5.2 C 81 % 2.21 C
141 11-03-2019 11:40:00 5.3 C 79 % 1.96 C
142 11-03-2019 11:45:00 5.3 C 79 % 1.96 C
143 11-03-2019 11:50:00 5.3 C 79 % 1.96 C
144 11-03-2019 11:55:00 5.3 C 79 % 1.96 C
145 11-03-2019 12:00:00 5.3 C 79 % 1.96 C
146 11-03-2019 12:05:00 5.3 C 78 % 1.78 C
147 11-03-2019 12:10:00 5.3 C 77 % 1.6 C
148 11-03-2019 12:15:00 5.4 C 77 % 1.7 C
149 11-03-2019 12:20:00 5.5 C 76 % 1.62 C
150 11-03-2019 12:25:00 5.6 C 77 % 1.89 C
Sensor: Nr:Datum:Temp:Feuchte:Taupunkt:
Aussen-T/F 151 11-03-2019 12:30:00 5.6 C 76 % 1.71 C
152 11-03-2019 12:35:00 5.7 C 76 % 1.81 C
153 11-03-2019 12:40:00 5.8 C 75 % 1.72 C
154 11-03-2019 12:45:00 5.8 C 75 % 1.72 C
155 11-03-2019 12:50:00 5.9 C 76 % 2 C
156 11-03-2019 12:55:00 6.1 C 74 % 1.82 C
157 11-03-2019 13:00:00 6.1 C 73 % 1.63 C
158 11-03-2019 13:05:00 6.1 C 73 % 1.63 C
159 11-03-2019 13:10:00 6.1 C 72 % 1.44 C
160 11-03-2019 13:15:00 6.1 C 73 % 1.63 C
161 11-03-2019 13:20:00 6.1 C 73 % 1.63 C
162 11-03-2019 13:25:00 6.3 C 72 % 1.63 C
163 11-03-2019 13:30:00 6.3 C 72 % 1.63 C
164 11-03-2019 13:35:00 6.7 C 73 % 2.21 C
165 11-03-2019 13:40:00 7.2 C 71 % 2.3 C
166 11-03-2019 13:45:00 7.5 C 70 % 2.39 C
167 11-03-2019 13:50:00 7.4 C 69 % 2.1 C
168 11-03-2019 13:55:00 7 C 71 % 2.11 C
169 11-03-2019 14:00:00 6.8 C 72 % 2.12 C
170 11-03-2019 14:05:00 6.6 C 71 % 1.73 C
171 11-03-2019 14:10:00 6.7 C 73 % 2.21 C
172 11-03-2019 14:15:00 6.8 C 72 % 2.12 C
173 11-03-2019 14:20:00 6.8 C 72 % 2.12 C
174 11-03-2019 14:25:00 6.9 C 71 % 2.02 C
175 11-03-2019 14:30:00 7.1 C 71 % 2.21 C
Sensor: Nr:Datum:Temp:Feuchte:Taupunkt:
Aussen-T/F 176 11-03-2019 14:35:00 7.2 C 71 % 2.3 C
177 11-03-2019 14:40:00 7.4 C 67 % 1.69 C
178 11-03-2019 14:45:00 7.4 C 67 % 1.69 C
179 11-03-2019 14:50:00 7.4 C 68 % 1.89 C
180 11-03-2019 14:55:00 7.4 C 67 % 1.69 C
181 11-03-2019 15:00:00 7.4 C 67 % 1.69 C
182 11-03-2019 15:05:00 7.4 C 67 % 1.69 C
183 11-03-2019 15:10:00 7.5 C 67 % 1.78 C
184 11-03-2019 15:15:00 7.6 C 67 % 1.88 C
185 11-03-2019 15:20:00 7.5 C 66 % 1.57 C
186 11-03-2019 15:25:00 7.6 C 67 % 1.88 C
187 11-03-2019 15:30:00 7.8 C 67 % 2.07 C
188 11-03-2019 15:35:00 7.9 C 66 % 1.95 C
189 11-03-2019 15:40:00 7.8 C 66 % 1.86 C
190 11-03-2019 15:45:00 7.7 C 67 % 1.97 C
191 11-03-2019 15:50:00 7.7 C 67 % 1.97 C
192 11-03-2019 15:55:00 7.7 C 67 % 1.97 C
193 11-03-2019 16:00:00 7.5 C 67 % 1.78 C
194 11-03-2019 16:05:00 7.3 C 68 % 1.8 C
195 11-03-2019 16:10:00 7.3 C 68 % 1.8 C
196 11-03-2019 16:15:00 7.2 C 68 % 1.7 C
197 11-03-2019 16:20:00 7.2 C 68 % 1.7 C
198 11-03-2019 16:25:00 7.2 C 68 % 1.7 C
199 11-03-2019 16:30:00 7.3 C 68 % 1.8 C
200 11-03-2019 16:35:00 7.3 C 69 % 2 C
Sensor: Nr:Datum:Temp:Feuchte:Taupunkt:
Aussen-T/F 201 11-03-2019 16:40:00 7.3 C 68 % 1.8 C
202 11-03-2019 16:45:00 7.2 C 68 % 1.7 C
203 11-03-2019 16:50:00 7.2 C 68 % 1.7 C
204 11-03-2019 16:55:00 7.2 C 71 % 2.3 C
205 11-03-2019 17:00:00 7 C 71 % 2.11 C
206 11-03-2019 17:05:00 6.7 C 72 % 2.02 C
207 11-03-2019 17:10:00 6.6 C 73 % 2.12 C
208 11-03-2019 17:15:00 6.4 C 73 % 1.92 C
209 11-03-2019 17:20:00 6.6 C 75 % 2.49 C
210 11-03-2019 17:25:00 7 C 74 % 2.69 C
211 11-03-2019 17:30:00 7.3 C 70 % 2.2 C
212 11-03-2019 17:35:00 7.6 C 68 % 2.08 C
213 11-03-2019 17:40:00 7.7 C 66 % 1.76 C
214 11-03-2019 17:45:00 7.7 C 67 % 1.97 C
215 11-03-2019 17:50:00 7.7 C 67 % 1.97 C
216 11-03-2019 17:55:00 7.8 C 66 % 1.86 C
217 11-03-2019 18:00:00 7.8 C 66 % 1.86 C
218 11-03-2019 18:05:00 7.7 C 65 % 1.55 C
219 11-03-2019 18:10:00 7.7 C 66 % 1.76 C
220 11-03-2019 18:15:00 7.4 C 66 % 1.48 C
221 11-03-2019 18:20:00 7.1 C 67 % 1.4 C
222 11-03-2019 18:25:00 6.9 C 68 % 1.41 C
223 11-03-2019 18:30:00 6.7 C 70 % 1.63 C
224 11-03-2019 18:35:00 6.6 C 70 % 1.53 C
225 11-03-2019 18:40:00 6.4 C 71 % 1.54 C
Sensor: Nr:Datum:Temp:Feuchte:Taupunkt:
Aussen-T/F 226 11-03-2019 18:45:00 6.4 C 72 % 1.73 C
227 11-03-2019 18:50:00 6.3 C 71 % 1.44 C
228 11-03-2019 18:55:00 6.2 C 72 % 1.54 C
229 11-03-2019 19:00:00 6.1 C 72 % 1.44 C
230 11-03-2019 19:05:00 5.9 C 72 % 1.25 C
231 11-03-2019 19:10:00 5.9 C 72 % 1.25 C
232 11-03-2019 19:15:00 5.8 C 73 % 1.34 C
233 11-03-2019 19:20:00 5.8 C 73 % 1.34 C
234 11-03-2019 19:25:00 5.8 C 73 % 1.34 C
235 11-03-2019 19:30:00 5.8 C 73 % 1.34 C
236 11-03-2019 19:35:00 5.8 C 73 % 1.34 C
237 11-03-2019 19:40:00 5.8 C 72 % 1.15 C
238 11-03-2019 19:45:00 5.8 C 73 % 1.34 C
239 11-03-2019 19:50:00 5.8 C 73 % 1.34 C
240 11-03-2019 19:55:00 5.7 C 73 % 1.25 C
241 11-03-2019 20:00:00 5.7 C 73 % 1.25 C
242 11-03-2019 20:05:00 5.7 C 73 % 1.25 C
243 11-03-2019 20:10:00 5.7 C 73 % 1.25 C
244 11-03-2019 20:15:00 5.8 C 73 % 1.34 C
245 11-03-2019 20:20:00 5.7 C 73 % 1.25 C
246 11-03-2019 20:25:00 5.7 C 73 % 1.25 C
247 11-03-2019 20:30:00 5.7 C 73 % 1.25 C
248 11-03-2019 20:35:00 5.7 C 74 % 1.44 C
249 11-03-2019 20:40:00 5.7 C 74 % 1.44 C
250 11-03-2019 20:45:00 5.6 C 74 % 1.34 C
Sensor: Nr:Datum:Temp:Feuchte:Taupunkt:
Aussen-T/F 251 11-03-2019 20:50:00 5.6 C 74 % 1.34 C
252 11-03-2019 20:55:00 5.6 C 75 % 1.53 C
253 11-03-2019 21:00:00 5.5 C 75 % 1.43 C
254 11-03-2019 21:05:00 5.4 C 75 % 1.33 C
255 11-03-2019 21:10:00 5.3 C 76 % 1.42 C
256 11-03-2019 21:15:00 5.2 C 76 % 1.32 C
257 11-03-2019 21:20:00 5.2 C 76 % 1.32 C
258 11-03-2019 21:25:00 5.2 C 76 % 1.32 C
259 11-03-2019 21:30:00 5.2 C 75 % 1.14 C
260 11-03-2019 21:35:00 5.2 C 75 % 1.14 C
261 11-03-2019 21:40:00 5.2 C 74 % 0.95 C
262 11-03-2019 21:45:00 5.3 C 74 % 1.05 C
263 11-03-2019 21:50:00 5.3 C 74 % 1.05 C
264 11-03-2019 21:55:00 5.4 C 74 % 1.15 C
265 11-03-2019 22:00:00 5.4 C 74 % 1.15 C
266 11-03-2019 22:05:00 5.5 C 74 % 1.24 C
267 11-03-2019 22:10:00 5.5 C 74 % 1.24 C
268 11-03-2019 22:15:00 5.5 C 74 % 1.24 C
269 11-03-2019 22:20:00 5.5 C 74 % 1.24 C
270 11-03-2019 22:25:00 5.4 C 74 % 1.15 C
271 11-03-2019 22:30:00 5.3 C 74 % 1.05 C
272 11-03-2019 22:35:00 5.3 C 75 % 1.24 C
273 11-03-2019 22:40:00 5.2 C 75 % 1.14 C
274 11-03-2019 22:45:00 5.2 C 75 % 1.14 C
275 11-03-2019 22:50:00 5.2 C 75 % 1.14 C
Sensor: Nr:Datum:Temp:Feuchte:Taupunkt:
Aussen-T/F 276 11-03-2019 22:55:00 5.1 C 75 % 1.04 C
277 11-03-2019 23:00:00 5.1 C 75 % 1.04 C
278 11-03-2019 23:05:00 5 C 75 % 0.95 C
279 11-03-2019 23:10:00 4.9 C 75 % 0.85 C
280 11-03-2019 23:15:00 4.9 C 75 % 0.85 C
281 11-03-2019 23:20:00 4.8 C 75 % 0.75 C
282 11-03-2019 23:25:00 4.8 C 76 % 0.94 C
283 11-03-2019 23:30:00 4.8 C 76 % 0.94 C
284 11-03-2019 23:35:00 4.7 C 76 % 0.84 C
285 11-03-2019 23:40:00 4.6 C 77 % 0.92 C
286 11-03-2019 23:45:00 4.5 C 77 % 0.83 C
287 11-03-2019 23:50:00 4.5 C 77 % 0.83 C
288 11-03-2019 23:55:00 4.4 C 78 % 0.91 C

Legende:
   Min
   Max


Maximal/Minimal-Werte vom 11.03.2019 - 11.03.2019

Sensor Min Max Avg
Temp
(Aussen-T/F)
1.3 °C
11-03-2019  07:15:00
7.9 °C
11-03-2019  15:35:00
4.79 °C
Feuchte
(Aussen-T/F)
65 %
11-03-2019  18:05:00
95 %
11-03-2019  07:40:00
79.83 %
Taupunkt
(Aussen-T/F)
0.4 C
11-03-2019  06:55:00
2.69 C
11-03-2019  17:25:00
1.5 C

Die Daten stammen von einer Davis Vantage Pro 2 Wetter-Station und werden unter Linux mit der Software wview2wettercgi und aufbereitet. Alle Angaben erfolgen ohne Gewähr für ihre Vollständigkeit oder Richtigkeit.
Kontakt: Rainer Krienke krienke@uni-koblenz.de . Meine Webseiten an der Uni Koblenz oder privat.
Version: $Revision: 0.78 $